aviador You're here:

PAHP Decoded Metar

HOOPER BAY in AK, USA
Report Time2018-01-17 01:07:00
UTC Time2018-01-17 01:18:59
Flight Rules ifr IFR
Wind330° at 23 kt
W.Decomp.*RWY 31: 22.8 kt HW 2.8 kt RCW
W.Rank330° ranks 6
Current wind is above 330° avg. (13.2)
Visibility4023 m
Phenomena:Mist
Clouds:Overcast 007 Hf
Expected CloudBase > 400 ft AGL from Temp-Dew spread
Ceiling700 ft
Temp-4°C (ISA -19)
Dew Point-5°C (93% RH)
AAT-14.9°C
QNH997 hPa
Density Alt-1,713 ft
Elevation16 ft
Report Wrong Elevation
Raw Report
PAHP 170107Z AUTO 33023KT 2 1/2SM UP BR OVC007 M04/M05 A2943 RMK
AO2 PK WND 33028/0100 P0000 FZRANO=

Extra information for PAHP:More info

Metar Taf Metar & Taf Last 4 Metars F.Rules Stats Wind Profile Meteogram Temp Stats Airport Information Weather charts Add Link Nearby VenuesMetar ALERT Operation Metar Decoded Social comments

AIRNAV info for PAHP